Terminal Aerodrome Forecast
Issued by NWS

Home | Current Version | Previous Version | Graphics & Text | Print | Product List | Glossary On
Versions: 1 2 3 4 5 6 7 8 9 10 11 12 13 14 15 16
226
FTUS43 KMPX 120942 AAA
TAFAXN
TAF AMD
KAXN 120942Z 1210/1306 33012KT P6SM SCT025
     FM121300 33016G24KT P6SM FEW025
     FM122200 33013KT P6SM SKC=

USA.gov is the U.S. government's official web portal to all federal, state and local government web resources and services.